Time;durP1;ratioP1;P1;durP2;ratioP2;P2;SDS_P1;SDS_P2;PMS_P1;PMS_P2;Temp;Humidity;BMP_temperature;BMP_pressure;BME280_temperature;BME280_humidity;BME280_pressure;Samples;Min_cycle;Max_cycle;Signal;HPM_P1;HPM_P2
2022/09/02 00:02:28;;;;;;;1.08;0.63;;;;;;;25.06;47.04;100787.19;4883080;29;20044;-81
2022/09/02 00:05:13;;;;;;;2.05;0.85;;;;;;;25.02;47.30;100780.06;4866023;29;20068;-81
2022/09/02 00:07:58;;;;;;;2.92;1.00;;;;;;;25.06;47.06;100786.38;4880385;29;20048;-81
2022/09/02 00:10:44;;;;;;;3.33;1.70;;;;;;;25.07;47.11;100787.97;4886128;29;20048;-81
2022/09/02 00:13:29;;;;;;;1.10;0.75;;;;;;;25.07;47.45;100788.75;4874282;29;20419;-81
2022/09/02 00:16:14;;;;;;;2.17;0.98;;;;;;;25.03;47.03;100782.44;4879967;29;20058;-80
2022/09/02 00:19:01;;;;;;;3.42;1.10;;;;;;;25.04;47.31;100772.09;4885896;29;20052;-81
2022/09/02 00:21:47;;;;;;;1.25;0.85;;;;;;;25.02;47.70;100777.28;4884118;29;20048;-80
2022/09/02 00:24:32;;;;;;;3.35;0.77;;;;;;;25.01;47.55;100770.91;4881860;29;20298;-81
2022/09/02 00:27:17;;;;;;;4.75;1.20;;;;;;;25.04;47.35;100778.44;4864727;29;20056;-80
2022/09/02 00:30:04;;;;;;;1.20;0.82;;;;;;;25.09;47.69;100782.78;4882715;29;20064;-81
2022/09/02 00:32:51;;;;;;;4.00;0.80;;;;;;;25.06;47.55;100778.81;4885401;29;20059;-80
2022/09/02 00:35:36;;;;;;;4.40;0.98;;;;;;;25.01;47.84;100772.91;4888786;29;20048;-80
2022/09/02 00:38:21;;;;;;;1.73;1.10;;;;;;;25.01;47.74;100776.50;4887140;29;20048;-80
2022/09/02 00:41:09;;;;;;;3.63;0.82;;;;;;;25.06;47.80;100787.19;4885076;29;20052;-81
2022/09/02 00:43:54;;;;;;;3.35;0.82;;;;;;;25.04;47.74;100789.56;4886424;29;20057;-80
2022/09/02 00:46:39;;;;;;;1.90;0.90;;;;;;;25.05;47.98;100784.78;4869925;29;20052;-80
2022/09/02 00:49:34;;;;;;;2.22;0.90;;;;;;;24.99;47.92;100775.34;4874022;29;20053;-81
2022/09/02 00:52:30;;;;;;;2.08;0.60;;;;;;;25.05;47.89;100780.03;4868166;29;20045;-79
2022/09/02 00:55:36;;;;;;;1.75;0.80;;;;;;;25.04;47.65;100783.22;4871385;29;20052;-80
2022/09/02 00:58:29;;;;;;;1.67;1.00;;;;;;;24.97;47.84;100781.31;4877933;29;20049;-81
2022/09/02 01:01:13;;;;;;;1.58;1.02;;;;;;;24.96;47.96;100781.69;4869803;29;20056;-80
2022/09/02 01:03:59;;;;;;;3.40;0.80;;;;;;;24.91;48.13;100765.44;4867776;29;20064;-80
2022/09/02 01:06:44;;;;;;;1.52;0.98;;;;;;;24.95;47.99;100775.34;4875046;29;20052;-80
2022/09/02 01:09:31;;;;;;;3.72;0.90;;;;;;;24.90;48.07;100766.66;4885374;29;20052;-80
2022/09/02 01:12:16;;;;;;;1.83;0.85;;;;;;;24.85;48.24;100765.06;4884144;29;20048;-80
2022/09/02 01:15:04;;;;;;;2.45;0.65;;;;;;;24.94;48.27;100781.34;4883822;29;20052;-81
2022/09/02 01:17:50;;;;;;;1.90;0.90;;;;;;;24.88;48.33;100766.28;4883575;29;20056;-81
2022/09/02 01:20:35;;;;;;;1.50;1.17;;;;;;;24.89;48.47;100771.41;4885450;29;20056;-81
2022/09/02 01:23:21;;;;;;;1.98;0.85;;;;;;;24.83;48.50;100767.50;4889796;29;20048;-80
2022/09/02 01:26:06;;;;;;;2.00;0.75;;;;;;;24.93;48.40;100777.78;4867308;29;20411;-80
2022/09/02 01:28:51;;;;;;;2.50;1.52;;;;;;;24.91;48.63;100774.59;4867597;29;20056;-81
2022/09/02 01:31:37;;;;;;;2.58;0.90;;;;;;;24.93;48.49;100771.41;4877589;29;20040;-80
2022/09/02 01:34:23;;;;;;;2.53;1.05;;;;;;;24.92;48.66;100776.19;4871565;29;20044;-81
2022/09/02 01:37:09;;;;;;;2.80;0.93;;;;;;;24.85;48.76;100767.84;4866853;29;20048;-81
2022/09/02 01:39:56;;;;;;;1.50;0.98;;;;;;;24.83;48.99;100761.94;4881032;29;20538;-80
2022/09/02 01:42:43;;;;;;;1.33;0.82;;;;;;;24.88;48.76;100774.63;4884216;29;20048;-81
2022/09/02 01:45:29;;;;;;;4.38;1.35;;;;;;;24.74;48.84;100749.69;4886217;29;20043;-81
2022/09/02 01:48:15;;;;;;;1.15;0.80;;;;;;;24.85;48.88;100773.41;4889443;29;20055;-81
2022/09/02 01:51:01;;;;;;;3.88;1.02;;;;;;;24.90;48.96;100777.78;4887104;29;20048;-82
2022/09/02 01:53:47;;;;;;;1.25;0.80;;;;;;;24.82;49.05;100759.56;4877302;29;20049;-80
2022/09/02 01:56:32;;;;;;;3.38;0.75;;;;;;;24.84;49.23;100765.50;4878684;29;20064;-80
2022/09/02 01:59:19;;;;;;;2.75;1.58;;;;;;;24.88;49.13;100766.28;4883120;29;20056;-81
2022/09/02 02:02:06;;;;;;;2.90;1.13;;;;;;;24.88;49.30;100760.72;4877655;29;20056;-81
2022/09/02 02:04:51;;;;;;;1.83;1.08;;;;;;;24.84;49.52;100746.78;4886878;29;20051;-79
2022/09/02 02:07:36;;;;;;;2.17;0.98;;;;;;;24.90;49.29;100752.75;4879049;29;20064;-79
2022/09/02 02:10:22;;;;;;;3.83;0.90;;;;;;;24.85;49.58;100744.81;4891842;29;20055;-81
2022/09/02 02:13:08;;;;;;;2.25;1.20;;;;;;;24.89;49.68;100756.75;4882674;29;20055;-80
2022/09/02 02:15:53;;;;;;;5.60;1.23;;;;;;;24.76;49.97;100733.38;4874770;29;20061;-81
2022/09/02 02:18:38;;;;;;;2.42;0.93;;;;;;;24.80;49.86;100734.91;4895950;29;20052;-81
2022/09/02 02:21:24;;;;;;;4.22;0.98;;;;;;;24.76;50.02;100727.81;4889726;29;20056;-80
2022/09/02 02:24:09;;;;;;;4.32;1.05;;;;;;;24.80;49.98;100732.13;4883674;29;20060;-81
2022/09/02 02:26:54;;;;;;;4.97;1.33;;;;;;;24.81;50.21;100735.72;4888095;29;20048;-80
2022/09/02 02:29:39;;;;;;;1.67;1.13;;;;;;;24.75;50.36;100727.00;4886216;29;20668;-81
2022/09/02 02:32:25;;;;;;;1.48;1.02;;;;;;;24.82;50.44;100732.53;4883520;29;20105;-81
2022/09/02 02:35:10;;;;;;;1.30;1.00;;;;;;;24.81;50.41;100736.50;4883342;29;20060;-81
2022/09/02 02:37:56;;;;;;;2.45;1.02;;;;;;;24.81;50.27;100735.72;4885404;29;20060;-81
2022/09/02 02:40:41;;;;;;;3.63;1.23;;;;;;;24.75;50.53;100727.00;4884014;29;20060;-80
2022/09/02 02:43:26;;;;;;;2.00;0.88;;;;;;;24.76;50.56;100725.03;4886328;29;20056;-80
2022/09/02 02:46:11;;;;;;;3.63;1.40;;;;;;;24.79;50.34;100735.34;4884414;29;20430;-79
2022/09/02 02:49:00;;;;;;;4.50;1.15;;;;;;;24.82;50.30;100742.84;4884189;29;20048;-80
2022/09/02 02:51:45;;;;;;;2.00;1.10;;;;;;;24.73;50.36;100726.66;4882815;29;20052;-81
2022/09/02 02:54:30;;;;;;;4.63;1.17;;;;;;;24.77;50.29;100729.41;4883539;29;20051;-81
2022/09/02 02:57:17;;;;;;;2.45;0.90;;;;;;;24.76;50.36;100727.81;4883594;29;20422;-81
2022/09/02 03:00:09;;;;;;;1.30;0.90;;;;;;;24.69;50.21;100711.97;4871919;29;20064;-81
2022/09/02 03:02:59;;;;;;;4.32;1.05;;;;;;;24.74;50.16;100713.53;4867631;29;20056;-80
2022/09/02 03:05:46;;;;;;;1.50;1.02;;;;;;;24.74;50.12;100731.00;4865278;29;20062;-80
2022/09/02 03:08:34;;;;;;;3.10;1.00;;;;;;;24.76;50.16;100727.81;4890640;29;20146;-81
2022/09/02 03:11:21;;;;;;;5.32;1.38;;;;;;;24.66;50.26;100710.03;4865969;29;20048;-81
2022/09/02 03:14:07;;;;;;;1.75;1.13;;;;;;;24.73;50.18;100712.75;4865078;29;20533;-79
2022/09/02 03:16:52;;;;;;;4.55;1.10;;;;;;;24.73;50.00;100711.94;4891294;29;20044;-81
2022/09/02 03:19:37;;;;;;;1.83;0.80;;;;;;;24.67;50.15;100700.47;4872715;29;20052;-80
2022/09/02 03:22:22;;;;;;;5.10;1.08;;;;;;;24.74;50.01;100707.97;4888575;29;20052;-80
2022/09/02 03:25:08;;;;;;;2.75;0.98;;;;;;;24.74;50.16;100710.75;4886771;29;20415;-80
2022/09/02 03:27:54;;;;;;;1.50;0.93;;;;;;;24.72;49.93;100716.72;4884181;29;20048;-81
2022/09/02 03:30:40;;;;;;;2.25;0.80;;;;;;;24.70;49.76;100717.13;4866469;29;20060;-81
2022/09/02 03:33:25;;;;;;;2.35;1.08;;;;;;;24.67;49.99;100712.41;4870186;29;20407;-81
2022/09/02 03:36:25;;;;;;;2.17;0.80;;;;;;;24.66;49.93;100708.03;4875758;29;20051;-80
2022/09/02 03:39:11;;;;;;;2.80;0.90;;;;;;;24.65;49.84;100720.34;4883266;29;20537;-81
2022/09/02 03:41:58;;;;;;;3.03;1.05;;;;;;;24.69;50.00;100726.66;4882544;29;20052;-81
2022/09/02 03:44:45;;;;;;;1.65;1.08;;;;;;;24.64;50.08;100721.53;4883771;29;20060;-80
2022/09/02 03:47:29;;;;;;;3.90;0.98;;;;;;;24.65;50.10;100725.13;4882880;29;20064;-80
2022/09/02 03:50:18;;;;;;;3.17;1.20;;;;;;;24.68;49.91;100722.31;4870376;29;20068;-81
2022/09/02 03:53:03;;;;;;;3.17;1.02;;;;;;;24.67;49.81;100715.19;4885242;29;20052;-81
2022/09/02 03:55:48;;;;;;;2.20;0.90;;;;;;;24.59;49.71;100705.31;4890528;29;20051;-81
2022/09/02 03:58:35;;;;;;;2.42;1.02;;;;;;;24.62;49.92;100706.50;4871721;29;20064;-81
2022/09/02 04:01:23;;;;;;;3.38;0.85;;;;;;;24.60;49.46;100708.88;4882910;29;20052;-81
2022/09/02 04:04:09;;;;;;;1.48;0.90;;;;;;;24.65;49.54;100714.00;4895322;29;20173;-81
2022/09/02 04:06:57;;;;;;;2.03;1.10;;;;;;;24.65;49.56;100716.78;4876967;29;20053;-81
2022/09/02 04:09:41;;;;;;;1.95;0.90;;;;;;;24.65;49.60;100720.34;4873828;29;20057;-81
2022/09/02 04:12:27;;;;;;;5.40;1.98;;;;;;;24.65;49.75;100719.56;4886050;29;20053;-81
2022/09/02 04:15:13;;;;;;;1.75;0.90;;;;;;;24.57;49.75;100707.72;4886483;29;20550;-80
2022/09/02 04:17:59;;;;;;;1.77;0.80;;;;;;;24.56;49.46;100714.47;4886758;29;20052;-80
2022/09/02 04:20:44;;;;;;;2.10;0.80;;;;;;;24.58;49.83;100725.97;4884677;29;20052;-80
2022/09/02 04:23:30;;;;;;;2.50;0.95;;;;;;;24.57;49.91;100732.75;4890770;29;20057;-81
2022/09/02 04:26:17;;;;;;;2.67;1.10;;;;;;;24.58;49.88;100734.31;4892554;29;20423;-79
2022/09/02 04:29:03;;;;;;;1.92;0.88;;;;;;;24.55;50.15;100726.78;4868437;29;20053;-80
2022/09/02 04:31:48;;;;;;;5.95;1.05;;;;;;;24.57;50.12;100731.94;4889397;29;20048;-80
2022/09/02 04:34:33;;;;;;;1.55;0.88;;;;;;;24.58;49.97;100734.31;4874558;29;20056;-80
2022/09/02 04:37:18;;;;;;;4.50;1.10;;;;;;;24.62;49.97;100734.28;4897278;29;20060;-81
2022/09/02 04:40:05;;;;;;;3.60;0.98;;;;;;;24.60;50.13;100731.91;4883193;29;20068;-81
2022/09/02 04:42:52;;;;;;;1.30;0.80;;;;;;;24.59;50.25;100727.53;4876670;29;20529;-80
2022/09/02 04:45:40;;;;;;;3.45;0.77;;;;;;;24.55;50.40;100731.56;4876907;29;20068;-81
2022/09/02 04:48:25;;;;;;;1.90;0.93;;;;;;;24.55;50.36;100740.69;4892307;29;20056;-79
2022/09/02 04:51:13;;;;;;;2.53;0.77;;;;;;;24.52;50.31;100730.41;4897662;29;20114;-80
2022/09/02 04:54:00;;;;;;;6.28;1.15;;;;;;;24.58;50.35;100744.66;4886375;29;20056;-80
2022/09/02 04:56:45;;;;;;;2.17;1.00;;;;;;;24.50;50.31;100741.13;4878644;29;20545;-80
2022/09/02 04:59:35;;;;;;;3.97;1.02;;;;;;;24.55;50.45;100748.25;4885060;29;20055;-81
2022/09/02 05:02:24;;;;;;;4.50;1.30;;;;;;;24.58;50.71;100755.78;4887335;29;20044;-76
2022/09/02 05:05:10;;;;;;;3.88;1.30;;;;;;;24.57;50.83;100751.41;4890657;29;20064;-76
2022/09/02 05:07:57;;;;;;;5.63;1.17;;;;;;;24.56;51.03;100753.41;4876319;29;20043;-77
2022/09/02 05:10:42;;;;;;;1.48;0.90;;;;;;;24.54;51.71;100749.44;4872163;29;20526;-76
2022/09/02 05:13:27;;;;;;;6.38;1.10;;;;;;;24.56;51.86;100752.63;4884299;29;20047;-78
2022/09/02 05:16:22;;;;;;;5.40;1.08;;;;;;;24.60;52.68;100748.59;4886642;29;20055;-77
2022/09/02 05:19:10;;;;;;;6.75;1.15;;;;;;;24.60;52.46;100743.03;4871095;29;20048;-78
2022/09/02 05:22:00;;;;;;;21.65;1.13;;;;;;;24.61;52.63;100752.97;4873435;29;20047;-77
2022/09/02 05:24:50;;;;;;;5.25;1.45;;;;;;;24.61;52.85;100744.63;4883524;29;20044;-78
2022/09/02 05:27:36;;;;;;;3.75;1.20;;;;;;;24.66;53.09;100746.16;4884119;29;20053;-78
2022/09/02 05:30:21;;;;;;;3.63;1.25;;;;;;;24.65;53.31;100748.16;4868102;29;20501;-79
2022/09/02 05:33:09;;;;;;;1.85;1.20;;;;;;;24.66;53.00;100744.19;4875956;29;20060;-80
2022/09/02 05:35:56;;;;;;;4.97;1.00;;;;;;;24.65;53.45;100750.16;4891684;29;20068;-80
2022/09/02 05:38:43;;;;;;;3.20;0.88;;;;;;;24.69;53.34;100759.25;4878596;29;20060;-79
2022/09/02 05:41:28;;;;;;;7.13;1.20;;;;;;;24.67;53.44;100761.66;4886154;29;20072;-80
2022/09/02 05:44:17;;;;;;;2.90;1.17;;;;;;;24.64;53.67;100763.25;4884733;29;20426;-79
2022/09/02 05:47:03;;;;;;;4.72;0.90;;;;;;;24.64;53.41;100766.03;4893091;29;20052;-80
2022/09/02 05:49:48;;;;;;;5.22;0.80;;;;;;;24.66;53.71;100757.31;4871696;29;20077;-80
2022/09/02 05:52:34;;;;;;;4.10;1.10;;;;;;;24.68;53.29;100769.59;4885671;29;20052;-79
2022/09/02 05:55:19;;;;;;;3.25;0.82;;;;;;;24.69;53.40;100773.94;4880001;29;20056;-80
2022/09/02 05:58:04;;;;;;;2.97;0.95;;;;;;;24.74;53.43;100777.50;4894889;29;20061;-79
2022/09/02 06:00:51;;;;;;;2.38;1.00;;;;;;;24.73;53.39;100785.06;4867150;29;20048;-80
2022/09/02 06:03:36;;;;;;;2.25;0.77;;;;;;;24.75;53.56;100787.41;4867637;29;20048;-83
2022/09/02 06:06:23;;;;;;;7.07;0.90;;;;;;;24.77;53.27;100790.59;4867538;29;20049;-80
2022/09/02 06:09:10;;;;;;;1.95;0.90;;;;;;;24.76;53.39;100789.78;4867572;29;20052;-80
2022/09/02 06:11:56;;;;;;;4.15;0.70;;;;;;;24.77;53.40;100793.38;4881914;29;20044;-80
2022/09/02 06:14:47;;;;;;;1.45;0.82;;;;;;;24.81;53.22;100789.34;4893250;29;20049;-80
2022/09/02 06:17:32;;;;;;;2.05;0.98;;;;;;;24.81;52.95;100780.22;4880012;29;20052;-80
2022/09/02 06:20:19;;;;;;;5.07;1.00;;;;;;;24.83;52.69;100780.59;4882725;29;20048;-80
2022/09/02 06:23:06;;;;;;;4.90;1.05;;;;;;;24.84;52.33;100779.41;4893930;29;20052;-79
2022/09/02 06:25:51;;;;;;;4.32;0.95;;;;;;;24.84;52.79;100774.63;4884655;29;20059;-80
2022/09/02 06:28:37;;;;;;;3.92;0.90;;;;;;;24.82;52.47;100777.03;4891567;29;20060;-79
2022/09/02 06:31:23;;;;;;;2.83;0.80;;;;;;;24.88;51.68;100786.56;4885273;29;20048;-79
2022/09/02 06:34:11;;;;;;;1.10;0.80;;;;;;;24.92;51.01;100787.31;4882629;29;20075;-78
2022/09/02 06:36:56;;;;;;;2.53;1.20;;;;;;;24.94;50.22;100778.56;4891013;29;20524;-79
2022/09/02 06:39:43;;;;;;;6.10;1.05;;;;;;;24.96;51.39;100776.13;4895398;29;20055;-78
2022/09/02 06:42:33;;;;;;;12.90;1.20;;;;;;;25.01;51.15;100778.47;4892487;29;20052;-79
2022/09/02 06:45:30;;;;;;;9.30;1.13;;;;;;;25.01;51.57;100773.69;4878488;29;20061;-79
2022/09/02 06:48:16;;;;;;;7.50;1.40;;;;;;;25.02;51.48;100768.94;4878987;29;20065;-78
2022/09/02 06:51:01;;;;;;;4.95;1.05;;;;;;;24.98;49.89;100770.97;4878309;29;20414;-78
2022/09/02 06:53:46;;;;;;;4.18;0.98;;;;;;;24.97;49.63;100778.53;4881267;29;20056;-78
2022/09/02 06:56:32;;;;;;;4.00;0.90;;;;;;;24.96;48.53;100773.34;4879651;29;20091;-79
2022/09/02 06:59:19;;;;;;;4.10;1.13;;;;;;;24.96;48.67;100773.34;4878106;29;20056;-78
2022/09/02 07:02:07;;;;;;;3.55;0.95;;;;;;;24.92;47.87;100769.81;4882603;29;20056;-80
2022/09/02 07:05:08;;;;;;;3.15;1.10;;;;;;;24.93;48.42;100779.75;4884769;29;20048;-79
2022/09/02 07:07:54;;;;;;;11.07;1.33;;;;;;;24.89;47.41;100776.22;4898291;29;20052;-80
2022/09/02 07:10:40;;;;;;;10.20;1.10;;;;;;;24.86;46.60;100780.56;4903734;29;20047;-80
2022/09/02 07:13:27;;;;;;;5.93;1.35;;;;;;;24.86;48.37;100780.56;4904025;29;20051;-80
2022/09/02 07:16:13;;;;;;;2.55;1.10;;;;;;;24.83;46.83;100772.25;4886883;29;20044;-81
2022/09/02 07:19:00;;;;;;;2.88;1.40;;;;;;;24.85;47.15;100776.19;4893289;29;20545;-81
2022/09/02 07:21:47;;;;;;;3.95;1.42;;;;;;;24.84;46.31;100779.41;4890024;29;20061;-81
2022/09/02 07:24:33;;;;;;;3.25;1.33;;;;;;;24.86;46.88;100774.22;4888158;29;20056;-81
2022/09/02 07:27:19;;;;;;;3.55;1.10;;;;;;;24.95;49.12;100783.69;4888467;29;20056;-81
2022/09/02 07:30:06;;;;;;;4.75;1.70;;;;;;;24.97;47.74;100783.28;4878343;29;20069;-80
2022/09/02 07:32:53;;;;;;;4.43;1.08;;;;;;;24.96;47.32;100778.91;4866809;29;20068;-81
2022/09/02 07:35:41;;;;;;;7.78;1.90;;;;;;;25.01;45.98;100784.03;4889352;29;20140;-82
2022/09/02 07:38:26;;;;;;;7.75;2.42;;;;;;;24.99;45.34;100780.91;4889516;29;20048;-81
2022/09/02 07:41:12;;;;;;;7.20;1.20;;;;;;;25.04;44.91;100783.22;4888336;29;20057;-81
2022/09/02 07:43:58;;;;;;;7.47;1.20;;;;;;;25.08;45.15;100789.56;4890552;29;20052;-80
2022/09/02 07:46:45;;;;;;;5.45;1.30;;;;;;;25.14;44.71;100790.69;4886318;29;20056;-81
2022/09/02 07:49:30;;;;;;;6.00;1.17;;;;;;;25.18;44.38;100776.72;4888574;29;20072;-75
2022/09/02 07:52:15;;;;;;;8.13;1.58;;;;;;;25.24;43.88;100783.44;4881523;29;20056;-77
2022/09/02 07:55:01;;;;;;;4.60;1.27;;;;;;;25.29;44.59;100782.97;4882328;29;20051;-77
2022/09/02 07:57:47;;;;;;;8.70;1.40;;;;;;;25.35;45.70;100790.44;4878025;29;20048;-76
2022/09/02 08:00:33;;;;;;;4.57;2.47;;;;;;;25.39;44.76;100785.66;4885642;29;20072;-76
2022/09/02 08:03:25;;;;;;;4.07;2.17;;;;;;;25.42;44.81;100798.75;4884124;29;20521;-77
2022/09/02 08:06:13;;;;;;;12.38;1.20;;;;;;;25.50;45.70;100803.00;4872142;29;20060;-77
2022/09/02 08:08:58;;;;;;;3.13;0.80;;;;;;;25.55;45.87;100796.22;4891389;29;20052;-77
2022/09/02 08:11:47;;;;;;;3.58;0.90;;;;;;;25.63;46.44;100797.75;4886835;29;20044;-77
2022/09/02 08:14:32;;;;;;;4.75;1.27;;;;;;;25.62;45.91;100785.00;4891875;29;20064;-77
2022/09/02 08:17:16;;;;;;;3.28;0.90;;;;;;;25.74;46.84;100787.25;4894505;29;20048;-78
2022/09/02 08:20:02;;;;;;;2.63;1.00;;;;;;;25.79;47.41;100783.22;4881077;29;20553;-77
2022/09/02 08:22:46;;;;;;;4.40;1.23;;;;;;;25.83;47.58;100783.97;4880824;29;20056;-77
2022/09/02 08:25:35;;;;;;;8.90;1.48;;;;;;;25.92;47.07;100787.03;4881035;29;20060;-79
2022/09/02 08:28:19;;;;;;;3.50;1.55;;;;;;;25.97;46.31;100787.34;4877652;29;20052;-77
2022/09/02 08:31:06;;;;;;;2.88;1.05;;;;;;;26.08;45.59;100778.84;4891927;29;20055;-76
2022/09/02 08:33:51;;;;;;;2.65;0.93;;;;;;;26.13;44.14;100783.16;4899402;29;20052;-76
2022/09/02 08:36:37;;;;;;;1.90;1.17;;;;;;;26.17;44.99;100783.91;4900529;29;20059;-77
2022/09/02 08:39:22;;;;;;;3.47;1.20;;;;;;;26.24;44.37;100786.63;4886253;29;20060;-78
2022/09/02 08:42:29;;;;;;;3.85;0.90;;;;;;;26.33;45.37;100796.03;4893206;29;20056;-78
2022/09/02 08:45:28;;;;;;;4.28;1.10;;;;;;;26.32;45.29;100797.25;4899139;29;20059;-77
2022/09/02 08:48:23;;;;;;;2.53;0.93;;;;;;;26.45;43.91;100788.31;4902349;29;20107;-78
2022/09/02 08:51:15;;;;;;;1.40;0.80;;;;;;;26.47;43.76;100777.50;4901151;29;20052;-77
2022/09/02 08:54:12;;;;;;;1.20;0.75;;;;;;;26.50;44.71;100777.47;4898947;29;20052;-77
2022/09/02 08:56:57;;;;;;;5.85;1.10;;;;;;;26.52;44.23;100779.81;4898974;29;20079;-77
2022/09/02 08:59:43;;;;;;;2.50;1.10;;;;;;;26.55;44.61;100777.00;4899451;29;20418;-76
2022/09/02 09:02:46;;;;;;;3.67;0.98;;;;;;;26.60;42.69;100775.72;4899018;29;20061;-77
2022/09/02 09:05:59;;;;;;;2.35;0.98;;;;;;;26.69;43.34;100773.97;4900497;29;20051;-76
2022/09/02 09:09:14;;;;;;;4.15;1.23;;;;;;;26.75;41.25;100775.06;4896987;29;20525;-77
2022/09/02 09:12:36;;;;;;;7.32;1.10;;;;;;;26.81;43.75;100778.94;4879040;29;20047;-76
2022/09/02 09:15:38;;;;;;;5.63;1.08;;;;;;;26.79;43.13;100772.19;4877022;29;20044;-76
2022/09/02 09:18:46;;;;;;;1.55;0.80;;;;;;;26.88;43.63;100775.25;4873165;29;20131;-84
2022/09/02 09:21:32;;;;;;;2.80;1.10;;;;;;;26.86;43.61;100774.88;4876361;29;20044;-76
2022/09/02 09:24:32;;;;;;;0.80;0.60;;;;;;;26.93;43.70;100771.97;4889091;29;20064;-76
2022/09/02 09:27:19;;;;;;;5.13;0.98;;;;;;;26.96;44.63;100771.16;4884402;29;20429;-78
2022/09/02 09:30:07;;;;;;;1.27;0.75;;;;;;;26.98;44.19;100774.28;4884060;29;20056;-77
2022/09/02 09:32:59;;;;;;;2.47;0.90;;;;;;;27.00;44.62;100769.06;4888160;29;20040;-75
2022/09/02 09:35:52;;;;;;;3.67;0.90;;;;;;;27.01;42.58;100762.28;4876897;29;20060;-77
2022/09/02 09:38:37;;;;;;;2.40;0.73;;;;;;;27.04;42.69;100767.00;4863468;29;20059;-77
2022/09/02 09:41:27;;;;;;;3.50;1.17;;;;;;;27.16;42.09;100769.19;4880501;29;20107;-76
2022/09/02 09:44:43;;;;;;;2.80;1.00;;;;;;;27.21;40.06;100760.31;4867667;29;20138;-77
2022/09/02 09:47:28;;;;;;;8.30;0.75;;;;;;;27.21;41.28;100760.31;4871612;29;20434;-76
2022/09/02 09:50:17;;;;;;;13.50;1.00;;;;;;;27.27;42.04;100748.66;4877453;29;20059;-77
2022/09/02 09:53:19;;;;;;;6.65;1.00;;;;;;;27.31;39.51;100763.31;4876988;29;20048;-77
2022/09/02 09:56:06;;;;;;;7.05;1.17;;;;;;;27.28;41.01;100745.41;4866273;29;20061;-77
2022/09/02 09:58:51;;;;;;;4.00;0.95;;;;;;;27.36;41.02;100758.03;4875421;29;20056;-77
2022/09/02 10:01:36;;;;;;;4.25;0.82;;;;;;;27.36;41.82;100760.81;4867936;29;20070;-76
2022/09/02 10:04:30;;;;;;;3.28;1.10;;;;;;;27.40;41.83;100760.75;4863427;29;20116;-76
2022/09/02 10:07:34;;;;;;;10.35;1.48;;;;;;;27.43;42.58;100751.53;4899069;29;20048;-76
2022/09/02 10:10:21;;;;;;;8.38;1.40;;;;;;;27.44;42.79;100753.88;4872948;29;20439;-76
2022/09/02 10:13:22;;;;;;;7.80;1.00;;;;;;;27.47;43.12;100743.84;4874262;29;20052;-77
2022/09/02 10:16:31;;;;;;;2.38;0.93;;;;;;;27.49;42.77;100739.44;4872835;29;20064;-76
2022/09/02 10:19:22;;;;;;;2.97;0.90;;;;;;;27.44;41.89;100747.50;4885648;29;20518;-76
2022/09/02 10:22:21;;;;;;;5.03;1.33;;;;;;;27.49;39.75;100747.00;4878718;29;20429;-76
2022/09/02 10:25:06;;;;;;;7.28;1.40;;;;;;;27.50;40.34;100743.81;4878520;29;20052;-76
2022/09/02 10:28:10;;;;;;;1.52;1.13;;;;;;;27.57;40.96;100746.47;4873881;29;20059;-76
2022/09/02 10:31:09;;;;;;;0.95;0.70;;;;;;;27.60;41.17;100734.41;4868553;29;20076;-76
2022/09/02 10:34:06;;;;;;;2.85;0.77;;;;;;;27.68;41.62;100737.06;4869061;29;20079;-77
2022/09/02 10:37:11;;;;;;;5.43;1.42;;;;;;;27.68;40.97;100735.06;4874281;29;20053;-77
2022/09/02 10:40:13;;;;;;;1.75;0.80;;;;;;;27.72;40.84;100738.56;4874914;29;20056;-78
2022/09/02 10:43:23;;;;;;;3.13;0.88;;;;;;;27.71;41.15;100736.19;4871420;29;20064;-78
2022/09/02 10:46:12;;;;;;;4.68;0.95;;;;;;;27.74;41.64;100724.94;4868489;29;20423;-78
2022/09/02 10:49:20;;;;;;;4.05;0.80;;;;;;;27.78;41.94;100727.66;4876148;29;20051;-78
2022/09/02 10:52:16;;;;;;;1.27;0.70;;;;;;;27.82;40.78;100731.97;4875206;29;20071;-79
2022/09/02 10:55:23;;;;;;;4.50;0.93;;;;;;;27.84;40.67;100723.91;4877271;29;20048;-78
2022/09/02 10:58:43;;;;;;;5.47;0.85;;;;;;;27.88;41.21;100724.66;4883530;29;20662;-78
2022/09/02 11:01:36;;;;;;;4.05;0.68;;;;;;;27.87;39.17;100723.06;4888969;29;20043;-78
2022/09/02 11:04:30;;;;;;;3.70;0.75;;;;;;;27.94;39.25;100711.69;4896733;29;20085;-78
2022/09/02 11:07:23;;;;;;;6.65;0.70;;;;;;;28.00;41.29;100704.38;4892614;29;20044;-78
2022/09/02 11:10:18;;;;;;;7.53;0.90;;;;;;;28.02;42.28;100704.75;4880877;29;20060;-77
2022/09/02 11:13:28;;;;;;;1.10;0.68;;;;;;;28.02;41.71;100712.34;4879396;29;20052;-78
2022/09/02 11:16:23;;;;;;;1.67;0.75;;;;;;;28.01;41.41;100705.16;4884460;29;20055;-79
2022/09/02 11:19:18;;;;;;;2.08;0.90;;;;;;;28.01;41.93;100705.97;4896563;29;20044;-78
2022/09/02 11:22:18;;;;;;;2.45;0.55;;;;;;;28.01;41.56;100703.16;4892749;29;20059;-77
2022/09/02 11:25:36;;;;;;;1.58;0.98;;;;;;;28.06;41.65;100702.66;4881648;29;20052;-78
2022/09/02 11:28:39;;;;;;;2.10;1.02;;;;;;;28.07;41.67;100703.44;4900360;29;20051;-78
2022/09/02 11:31:43;;;;;;;4.57;0.70;;;;;;;28.08;41.81;100697.41;4896283;29;20047;-77
2022/09/02 11:34:44;;;;;;;1.80;0.80;;;;;;;28.03;41.28;100697.16;4896616;29;20530;-77
2022/09/02 11:37:50;;;;;;;7.35;0.70;;;;;;;28.11;41.09;100686.56;4896324;29;20052;-77
2022/09/02 11:40:58;;;;;;;1.33;0.80;;;;;;;28.13;41.05;100689.75;4895638;29;20047;-77
2022/09/02 11:44:04;;;;;;;3.72;0.80;;;;;;;28.13;40.83;100692.56;4898648;29;20052;-77
2022/09/02 11:47:01;;;;;;;3.67;0.60;;;;;;;28.14;41.30;100685.75;4896421;29;20055;-78
2022/09/02 11:50:02;;;;;;;5.03;1.35;;;;;;;28.14;40.99;100682.94;4896499;29;20043;-77
2022/09/02 11:53:19;;;;;;;1.48;0.75;;;;;;;28.19;41.14;100682.41;4887489;29;20044;-77
2022/09/02 11:56:10;;;;;;;4.05;0.80;;;;;;;28.16;41.55;100677.69;4881273;29;20060;-77
2022/09/02 11:58:55;;;;;;;0.95;0.63;;;;;;;28.15;41.43;100673.31;4887549;29;20052;-77
2022/09/02 12:01:53;;;;;;;2.00;0.88;;;;;;;28.19;41.68;100665.66;4896547;29;20051;-77
2022/09/02 12:04:38;;;;;;;3.17;0.60;;;;;;;28.17;41.25;100665.28;4896546;29;20056;-77
2022/09/02 12:07:24;;;;;;;1.08;0.50;;;;;;;28.21;41.46;100668.78;4896046;29;20072;-77
2022/09/02 12:10:45;;;;;;;2.63;0.73;;;;;;;28.22;41.09;100670.34;4896276;29;20056;-77
2022/09/02 12:13:40;;;;;;;2.35;0.75;;;;;;;28.23;38.12;100666.34;4896192;29;20077;-77
2022/09/02 12:16:28;;;;;;;4.93;0.73;;;;;;;28.34;39.75;100662.03;4899797;29;20059;-77
2022/09/02 12:19:12;;;;;;;1.08;0.63;;;;;;;28.32;40.99;100658.91;4896251;29;20051;-77
2022/09/02 12:22:15;;;;;;;2.83;0.80;;;;;;;28.36;40.91;100653.22;4896388;29;20055;-78
2022/09/02 12:25:02;;;;;;;1.45;0.75;;;;;;;28.29;39.55;100656.97;4885785;29;20052;-77
2022/09/02 12:27:47;;;;;;;1.08;0.50;;;;;;;28.31;38.90;100639.75;4887192;29;20052;-78
2022/09/02 12:30:55;;;;;;;4.72;0.70;;;;;;;36.19;22.74;100643.13;4869687;29;20526;-77
2022/09/02 12:33:48;;;;;;;4.82;0.90;;;;;;;39.10;18.33;100659.97;4885965;29;20415;-77
2022/09/02 12:36:35;;;;;;;7.60;0.80;;;;;;;39.52;18.15;100650.44;4884440;29;20130;-76
2022/09/02 12:39:23;;;;;;;3.58;0.68;;;;;;;41.10;18.77;100653.06;4872211;29;20522;-77
2022/09/02 12:42:28;;;;;;;1.80;0.63;;;;;;;42.42;16.25;100651.59;4885646;29;20534;-77
2022/09/02 12:45:23;;;;;;;8.70;2.08;;;;;;;40.97;14.61;100645.09;4868642;29;20119;-77
2022/09/02 12:48:17;;;;;;;5.90;0.65;;;;;;;41.07;16.54;100631.31;4874044;29;20057;-76
2022/09/02 12:51:02;;;;;;;7.50;0.70;;;;;;;41.14;14.36;100642.16;4876393;29;20061;-77
2022/09/02 12:53:49;;;;;;;2.10;0.98;;;;;;;39.22;16.05;100635.13;4875455;29;20040;-76
2022/09/02 12:56:34;;;;;;;0.95;0.52;;;;;;;40.58;16.04;100628.22;4873565;29;20431;-77
2022/09/02 12:59:31;;;;;;;2.38;0.82;;;;;;;42.85;13.22;100635.16;4879530;29;20052;-77
2022/09/02 13:02:50;;;;;;;3.13;0.68;;;;;;;38.48;16.33;100616.38;4880157;29;20056;-78
2022/09/02 13:06:04;;;;;;;2.33;0.82;;;;;;;36.48;19.58;100597.66;4880404;29;20076;-78
2022/09/02 13:09:04;;;;;;;4.70;0.85;;;;;;;34.46;22.17;100591.25;4880057;29;20051;-77
2022/09/02 13:11:49;;;;;;;19.95;4.78;;;;;;;32.70;22.97;100590.88;4880263;29;20052;-76